Oriental Freesia — ZGCD7 — position and weather

sailwx.info

Track history (hours):
 
Tides and Currents Weather Stations Pressure Air Temp Water Temp Dewpoint Dewpoint Depression Visibility Wind Speed Wind Dir Waves Ship Positions

Oriental Freesia

Last reported at 2014-Nov-16 05:33 UTC. Time now 2014-Nov-28 09:49 UTC.
Position N 36°20' E 014°42'.
Warning: this ship's position is 12 days out of date.

Length 134 m; draft 8.9 m.

Type: Ship (hazmat cat A). MMSI: 319349000.

Date/timePositionNaut miles runAvg speedWind from/ knotsBaromVisibWave heightAir tempDewpointWater temp
2014-Nov-16 05:33N 36°20' E 014°42'1211.8
2014-Nov-16 04:33N 36°24' E 014°28'1411.7
2014-Nov-16 03:23N 36°28' E 014°12'1011.7
2014-Nov-16 02:33N 36°31' E 014°00'1211.5
2014-Nov-16 01:31N 36°34' E 013°46'3511.5
2014-Nov-15 22:30N 36°45' E 013°05'1111.4
2014-Nov-15 21:33N 36°48' E 012°52'  
2014-Nov-13 10:33N 38°53' E 009°05'8 8.4
2014-Nov-13 09:33N 39°01' E 009°07'6 5.8
2014-Nov-13 08:33N 39°06' E 009°03'1 1.1
2014-Nov-13 07:32N 39°06' E 009°02'0 0.0
2014-Nov-13 06:26N 39°06' E 009°02'0 0.0
2014-Nov-13 05:20N 39°06' E 009°02'0 0.0
2014-Nov-13 04:32N 39°06' E 009°02'0 0.0
2014-Nov-13 03:32N 39°06' E 009°02'0 0.0
2014-Nov-13 02:29N 39°06' E 009°02'0 0.0
2014-Nov-13 01:32N 39°06' E 009°02'0 0.0
2014-Nov-13 00:32N 39°06' E 009°02'0 0.0
2014-Nov-12 23:29N 39°06' E 009°02'0 0.0
2014-Nov-12 22:32N 39°06' E 009°02'0 0.0
2014-Nov-12 21:32N 39°06' E 009°02'0 0.0
2014-Nov-12 20:32N 39°06' E 009°02'0 0.0
2014-Nov-12 19:32N 39°06' E 009°02'0 0.0
2014-Nov-12 18:29N 39°06' E 009°02'0 0.0
2014-Nov-12 17:29N 39°06' E 009°02'0 0.0
2014-Nov-12 16:26N 39°06' E 009°02'0 0.0
2014-Nov-12 15:17N 39°06' E 009°02'0 0.0
2014-Nov-12 14:29N 39°06' E 009°02'0 0.0
2014-Nov-12 13:32N 39°06' E 009°02'0 0.0
2014-Nov-12 12:17N 39°06' E 009°02'1 1.5
2014-Nov-12 11:31N 39°06' E 009°03'0 0.2
2014-Nov-12 10:25N 39°07' E 009°03'0 0.1
2014-Nov-12 09:28N 39°07' E 009°03'0 0.0
2014-Nov-12 08:31N 39°07' E 009°03'0 0.0
2014-Nov-12 07:31N 39°07' E 009°03'0 0.0
2014-Nov-12 06:28N 39°07' E 009°03'0 0.0
2014-Nov-12 05:28N 39°07' E 009°03'0 0.0
2014-Nov-12 04:31N 39°07' E 009°03'0 0.0
2014-Nov-12 03:28N 39°07' E 009°03'0 0.0
2014-Nov-12 02:28N 39°07' E 009°03'0 0.0
2014-Nov-12 01:31N 39°07' E 009°03'0 0.0
2014-Nov-12 00:25N 39°07' E 009°03'0 0.0
2014-Nov-11 23:28N 39°07' E 009°03'0 0.0
2014-Nov-11 22:31N 39°07' E 009°03'0 0.0
2014-Nov-11 21:25N 39°07' E 009°03'0 0.0
2014-Nov-11 20:28N 39°07' E 009°03'0 0.0
2014-Nov-11 19:28N 39°07' E 009°03'0 0.0
2014-Nov-11 18:31N 39°07' E 009°03'0 0.0
2014-Nov-11 17:31N 39°07' E 009°03'0 0.0
2014-Nov-11 16:31N 39°07' E 009°03'0 0.0
2014-Nov-11 15:28N 39°07' E 009°03'0 0.0
2014-Nov-11 14:31N 39°07' E 009°03'0 0.0
2014-Nov-11 13:31N 39°07' E 009°03'0 0.0
2014-Nov-11 12:31N 39°07' E 009°03'0 0.0
2014-Nov-11 11:31N 39°07' E 009°03'0 0.0
2014-Nov-11 10:31N 39°07' E 009°03'0 0.0
2014-Nov-11 09:31N 39°06' E 009°03'0 0.1
2014-Nov-11 08:31N 39°06' E 009°03'0 0.2
2014-Nov-11 07:31N 39°07' E 009°03'0 0.0
2014-Nov-11 06:31N 39°07' E 009°03'0 0.0
2014-Nov-11 05:31N 39°07' E 009°03'0 0.0
2014-Nov-11 04:31N 39°07' E 009°03'0 0.0
2014-Nov-11 03:31N 39°07' E 009°03'0 0.0
2014-Nov-11 02:31N 39°07' E 009°03'0 0.0
2014-Nov-11 01:31N 39°07' E 009°03'0 0.0
2014-Nov-11 00:31N 39°07' E 009°03'0 0.0
2014-Nov-10 23:31N 39°07' E 009°03'0 0.0
2014-Nov-10 22:31N 39°07' E 009°03'0 0.0
2014-Nov-10 21:31N 39°07' E 009°03'0 0.0
2014-Nov-10 20:31N 39°07' E 009°03'0 0.0
2014-Nov-10 19:31N 39°07' E 009°03'0 0.0
2014-Nov-10 18:31N 39°07' E 009°03'0 0.0
2014-Nov-10 17:31N 39°07' E 009°03'0 0.0
2014-Nov-10 16:31N 39°07' E 009°03'0 0.0
2014-Nov-10 15:31N 39°07' E 009°03'0 0.0
2014-Nov-10 14:31N 39°07' E 009°03'1 0.7
2014-Nov-10 13:33N 39°06' E 009°04'7 6.6
2014-Nov-10 12:33N 38°60' E 009°05'1111.3
2014-Nov-10 11:32N 38°50' E 008°58'1110.8
2014-Nov-10 10:33N 38°44' E 008°47'1311.9
2014-Nov-10 09:27N 38°44' E 008°30'1111.9
2014-Nov-10 08:32N 38°44' E 008°16'2310.8
2014-Nov-10 06:24N 38°57' E 007°52'25611.6
2014-Nov-09 08:14N 42°46' E 005°19'710.6
2014-Nov-09 07:33N 42°52' E 005°14'20 9.8
2014-Nov-09 05:33N 43°10' E 005°02'10 9.7
2014-Nov-09 04:33N 43°19' E 004°59'5 4.9
2014-Nov-09 03:31N 43°24' E 004°60'0 0.0
2014-Nov-09 02:31N 43°24' E 004°60'0 0.0
2014-Nov-09 01:31N 43°24' E 004°60'0 0.0
2014-Nov-09 00:31N 43°24' E 004°60'0 0.0
2014-Nov-08 23:31N 43°24' E 004°60'0 0.0
2014-Nov-08 22:31N 43°24' E 004°60'0 0.0
2014-Nov-08 21:31N 43°24' E 004°60'0 0.0
2014-Nov-08 20:31N 43°24' E 004°60'0 0.0
2014-Nov-08 19:31N 43°24' E 004°60'0 0.0
2014-Nov-08 18:31N 43°24' E 004°60'0 0.0
2014-Nov-08 17:31N 43°24' E 004°60'0 0.0
2014-Nov-08 16:31N 43°24' E 004°60'0 0.0
2014-Nov-08 15:31N 43°24' E 004°60'0 0.0
2014-Nov-08 14:31N 43°24' E 004°60'0 0.0
2014-Nov-08 13:31N 43°24' E 004°60'0 0.0
2014-Nov-08 12:31N 43°24' E 004°60'0 0.0
2014-Nov-08 11:31N 43°24' E 004°60'0 0.0
2014-Nov-08 10:31N 43°24' E 004°60'0 0.0
2014-Nov-08 09:31N 43°24' E 004°60'2 2.4
2014-Nov-08 08:33N 43°22' E 004°58'9 8.8
2014-Nov-08 07:33N 43°14' E 005°02'10 9.7
2014-Nov-08 06:32N 43°04' E 004°57'7610.6
2014-Nov-07 23:21N 42°07' E 003°49'7 9.0
2014-Nov-07 22:33N 42°01' E 003°43'10 9.8
2014-Nov-07 21:29N 41°53' E 003°34'1110.0
2014-Nov-07 20:24N 41°45' E 003°24'2110.9
2014-Nov-07 18:29N 41°30' E 003°06'1211.7
2014-Nov-07 17:30N 41°21' E 002°56'1311.7
2014-Nov-07 16:25N 41°11' E 002°45'2411.4
2014-Nov-07 14:21N 40°53' E 002°25'1012.3
2014-Nov-07 13:33N 40°46' E 002°16'1211.8
2014-Nov-07 12:33N 40°37' E 002°06'1212.1
2014-Nov-07 11:33N 40°28' E 001°55'1212.3
2014-Nov-07 10:33N 40°18' E 001°45'1212.3
2014-Nov-07 09:33N 40°09' E 001°34'1212.4
2014-Nov-07 08:33N 39°60' E 001°24'16211.3
2014-Nov-06 18:11N 37°37' W 000°16'  
Track history (hours):
 
Tides and Currents Weather Stations Pressure Air Temp Water Temp Dewpoint Dewpoint Depression Visibility Wind Speed Wind Dir Waves Ship Positions

Oriental Freesia

Last reported at 2014-Nov-16 05:33 UTC. Time now 2014-Nov-28 09:49 UTC.
Position N 36°20' E 014°42'.
Warning: this ship's position is 12 days out of date.

Length 134 m; draft 8.9 m.

Type: Ship (hazmat cat A). MMSI: 319349000.

Date/timePositionNaut miles runAvg speedWind from/ knotsBaromVisibWave heightAir tempDewpointWater temp
2014-Nov-16 05:33N 36°20' E 014°42'1211.8
2014-Nov-16 04:33N 36°24' E 014°28'1411.7
2014-Nov-16 03:23N 36°28' E 014°12'1011.7
2014-Nov-16 02:33N 36°31' E 014°00'1211.5
2014-Nov-16 01:31N 36°34' E 013°46'3511.5
2014-Nov-15 22:30N 36°45' E 013°05'1111.4
2014-Nov-15 21:33N 36°48' E 012°52'  
2014-Nov-13 10:33N 38°53' E 009°05'8 8.4
2014-Nov-13 09:33N 39°01' E 009°07'6 5.8
2014-Nov-13 08:33N 39°06' E 009°03'1 1.1
2014-Nov-13 07:32N 39°06' E 009°02'0 0.0
2014-Nov-13 06:26N 39°06' E 009°02'0 0.0
2014-Nov-13 05:20N 39°06' E 009°02'0 0.0
2014-Nov-13 04:32N 39°06' E 009°02'0 0.0
2014-Nov-13 03:32N 39°06' E 009°02'0 0.0
2014-Nov-13 02:29N 39°06' E 009°02'0 0.0
2014-Nov-13 01:32N 39°06' E 009°02'0 0.0
2014-Nov-13 00:32N 39°06' E 009°02'0 0.0
2014-Nov-12 23:29N 39°06' E 009°02'0 0.0
2014-Nov-12 22:32N 39°06' E 009°02'0 0.0
2014-Nov-12 21:32N 39°06' E 009°02'0 0.0
2014-Nov-12 20:32N 39°06' E 009°02'0 0.0
2014-Nov-12 19:32N 39°06' E 009°02'0 0.0
2014-Nov-12 18:29N 39°06' E 009°02'0 0.0
2014-Nov-12 17:29N 39°06' E 009°02'0 0.0
2014-Nov-12 16:26N 39°06' E 009°02'0 0.0
2014-Nov-12 15:17N 39°06' E 009°02'0 0.0
2014-Nov-12 14:29N 39°06' E 009°02'0 0.0
2014-Nov-12 13:32N 39°06' E 009°02'0 0.0
2014-Nov-12 12:17N 39°06' E 009°02'1 1.5
2014-Nov-12 11:31N 39°06' E 009°03'0 0.2
2014-Nov-12 10:25N 39°07' E 009°03'0 0.1
2014-Nov-12 09:28N 39°07' E 009°03'0 0.0
2014-Nov-12 08:31N 39°07' E 009°03'0 0.0
2014-Nov-12 07:31N 39°07' E 009°03'0 0.0
2014-Nov-12 06:28N 39°07' E 009°03'0 0.0
2014-Nov-12 05:28N 39°07' E 009°03'0 0.0
2014-Nov-12 04:31N 39°07' E 009°03'0 0.0
2014-Nov-12 03:28N 39°07' E 009°03'0 0.0
2014-Nov-12 02:28N 39°07' E 009°03'0 0.0
2014-Nov-12 01:31N 39°07' E 009°03'0 0.0
2014-Nov-12 00:25N 39°07' E 009°03'0 0.0
2014-Nov-11 23:28N 39°07' E 009°03'0 0.0
2014-Nov-11 22:31N 39°07' E 009°03'0 0.0
2014-Nov-11 21:25N 39°07' E 009°03'0 0.0
2014-Nov-11 20:28N 39°07' E 009°03'0 0.0
2014-Nov-11 19:28N 39°07' E 009°03'0 0.0
2014-Nov-11 18:31N 39°07' E 009°03'0 0.0
2014-Nov-11 17:31N 39°07' E 009°03'0 0.0
2014-Nov-11 16:31N 39°07' E 009°03'0 0.0
2014-Nov-11 15:28N 39°07' E 009°03'0 0.0
2014-Nov-11 14:31N 39°07' E 009°03'0 0.0
2014-Nov-11 13:31N 39°07' E 009°03'0 0.0
2014-Nov-11 12:31N 39°07' E 009°03'0 0.0
2014-Nov-11 11:31N 39°07' E 009°03'0 0.0
2014-Nov-11 10:31N 39°07' E 009°03'0 0.0
2014-Nov-11 09:31N 39°06' E 009°03'0 0.1
2014-Nov-11 08:31N 39°06' E 009°03'0 0.2
2014-Nov-11 07:31N 39°07' E 009°03'0 0.0
2014-Nov-11 06:31N 39°07' E 009°03'0 0.0
2014-Nov-11 05:31N 39°07' E 009°03'0 0.0
2014-Nov-11 04:31N 39°07' E 009°03'0 0.0
2014-Nov-11 03:31N 39°07' E 009°03'0 0.0
2014-Nov-11 02:31N 39°07' E 009°03'0 0.0
2014-Nov-11 01:31N 39°07' E 009°03'0 0.0
2014-Nov-11 00:31N 39°07' E 009°03'0 0.0
2014-Nov-10 23:31N 39°07' E 009°03'0 0.0
2014-Nov-10 22:31N 39°07' E 009°03'0 0.0
2014-Nov-10 21:31N 39°07' E 009°03'0 0.0
2014-Nov-10 20:31N 39°07' E 009°03'0 0.0
2014-Nov-10 19:31N 39°07' E 009°03'0 0.0
2014-Nov-10 18:31N 39°07' E 009°03'0 0.0
2014-Nov-10 17:31N 39°07' E 009°03'0 0.0
2014-Nov-10 16:31N 39°07' E 009°03'0 0.0
2014-Nov-10 15:31N 39°07' E 009°03'0 0.0
2014-Nov-10 14:31N 39°07' E 009°03'1 0.7
2014-Nov-10 13:33N 39°06' E 009°04'7 6.6
2014-Nov-10 12:33N 38°60' E 009°05'1111.3
2014-Nov-10 11:32N 38°50' E 008°58'1110.8
2014-Nov-10 10:33N 38°44' E 008°47'1311.9
2014-Nov-10 09:27N 38°44' E 008°30'1111.9
2014-Nov-10 08:32N 38°44' E 008°16'2310.8
2014-Nov-10 06:24N 38°57' E 007°52'25611.6
2014-Nov-09 08:14N 42°46' E 005°19'710.6
2014-Nov-09 07:33N 42°52' E 005°14'20 9.8
2014-Nov-09 05:33N 43°10' E 005°02'10 9.7
2014-Nov-09 04:33N 43°19' E 004°59'5 4.9
2014-Nov-09 03:31N 43°24' E 004°60'0 0.0
2014-Nov-09 02:31N 43°24' E 004°60'0 0.0
2014-Nov-09 01:31N 43°24' E 004°60'0 0.0
2014-Nov-09 00:31N 43°24' E 004°60'0 0.0
2014-Nov-08 23:31N 43°24' E 004°60'0 0.0
2014-Nov-08 22:31N 43°24' E 004°60'0 0.0
2014-Nov-08 21:31N 43°24' E 004°60'0 0.0
2014-Nov-08 20:31N 43°24' E 004°60'0 0.0
2014-Nov-08 19:31N 43°24' E 004°60'0 0.0
2014-Nov-08 18:31N 43°24' E 004°60'0 0.0
2014-Nov-08 17:31N 43°24' E 004°60'0 0.0
2014-Nov-08 16:31N 43°24' E 004°60'0 0.0
2014-Nov-08 15:31N 43°24' E 004°60'0 0.0
2014-Nov-08 14:31N 43°24' E 004°60'0 0.0
2014-Nov-08 13:31N 43°24' E 004°60'0 0.0
2014-Nov-08 12:31N 43°24' E 004°60'0 0.0
2014-Nov-08 11:31N 43°24' E 004°60'0 0.0
2014-Nov-08 10:31N 43°24' E 004°60'0 0.0
2014-Nov-08 09:31N 43°24' E 004°60'2 2.4
2014-Nov-08 08:33N 43°22' E 004°58'9 8.8
2014-Nov-08 07:33N 43°14' E 005°02'10 9.7
2014-Nov-08 06:32N 43°04' E 004°57'7610.6
2014-Nov-07 23:21N 42°07' E 003°49'7 9.0
2014-Nov-07 22:33N 42°01' E 003°43'10 9.8
2014-Nov-07 21:29N 41°53' E 003°34'1110.0
2014-Nov-07 20:24N 41°45' E 003°24'2110.9
2014-Nov-07 18:29N 41°30' E 003°06'1211.7
2014-Nov-07 17:30N 41°21' E 002°56'1311.7
2014-Nov-07 16:25N 41°11' E 002°45'2411.4
2014-Nov-07 14:21N 40°53' E 002°25'1012.3
2014-Nov-07 13:33N 40°46' E 002°16'1211.8
2014-Nov-07 12:33N 40°37' E 002°06'1212.1
2014-Nov-07 11:33N 40°28' E 001°55'1212.3
2014-Nov-07 10:33N 40°18' E 001°45'1212.3
2014-Nov-07 09:33N 40°09' E 001°34'1212.4
2014-Nov-07 08:33N 39°60' E 001°24'16211.3
2014-Nov-06 18:11N 37°37' W 000°16'  

Dump ship's entire track history